sensor_id;sensor_type;location;lat;lon;timestamp;P1;durP1;ratioP1;P2;durP2;ratioP2
10416;SDS011;62605;49.432;8.680;2023-04-25T00:00:36;2.23;;;2.03;;
10416;SDS011;62605;49.432;8.680;2023-04-25T00:03:03;3.43;;;2.00;;
10416;SDS011;62605;49.432;8.680;2023-04-25T00:05:31;4.00;;;2.33;;
10416;SDS011;62605;49.432;8.680;2023-04-25T00:07:58;4.67;;;2.90;;
10416;SDS011;62605;49.432;8.680;2023-04-25T00:10:27;2.60;;;2.40;;
10416;SDS011;62605;49.432;8.680;2023-04-25T00:12:54;3.13;;;2.43;;
10416;SDS011;62605;49.432;8.680;2023-04-25T00:15:22;3.13;;;2.13;;
10416;SDS011;62605;49.432;8.680;2023-04-25T00:17:50;2.43;;;2.23;;
10416;SDS011;62605;49.432;8.680;2023-04-25T00:20:18;3.57;;;2.57;;
10416;SDS011;62605;49.432;8.680;2023-04-25T00:22:45;4.10;;;2.33;;
10416;SDS011;62605;49.432;8.680;2023-04-25T00:25:12;3.57;;;2.90;;
10416;SDS011;62605;49.432;8.680;2023-04-25T00:27:41;2.63;;;2.07;;
10416;SDS011;62605;49.432;8.680;2023-04-25T00:30:08;4.10;;;2.70;;
10416;SDS011;62605;49.432;8.680;2023-04-25T00:32:36;3.93;;;2.70;;
10416;SDS011;62605;49.432;8.680;2023-04-25T00:35:04;4.07;;;2.70;;
10416;SDS011;62605;49.432;8.680;2023-04-25T00:37:31;3.37;;;2.70;;
10416;SDS011;62605;49.432;8.680;2023-04-25T00:39:58;3.80;;;2.60;;
10416;SDS011;62605;49.432;8.680;2023-04-25T00:42:25;3.27;;;2.40;;
10416;SDS011;62605;49.432;8.680;2023-04-25T00:44:53;3.87;;;2.70;;
10416;SDS011;62605;49.432;8.680;2023-04-25T00:47:21;2.67;;;2.37;;
10416;SDS011;62605;49.432;8.680;2023-04-25T00:49:49;3.47;;;2.63;;
10416;SDS011;62605;49.432;8.680;2023-04-25T00:52:18;3.57;;;2.53;;
10416;SDS011;62605;49.432;8.680;2023-04-25T00:54:46;2.50;;;2.30;;
10416;SDS011;62605;49.432;8.680;2023-04-25T00:57:13;5.73;;;2.60;;
10416;SDS011;62605;49.432;8.680;2023-04-25T00:59:40;3.43;;;2.17;;
10416;SDS011;62605;49.432;8.680;2023-04-25T01:02:13;3.03;;;2.40;;
10416;SDS011;62605;49.432;8.680;2023-04-25T01:04:40;2.43;;;2.17;;
10416;SDS011;62605;49.432;8.680;2023-04-25T01:07:07;2.37;;;2.03;;
10416;SDS011;62605;49.432;8.680;2023-04-25T01:09:35;2.17;;;1.97;;
10416;SDS011;62605;49.432;8.680;2023-04-25T01:12:02;3.00;;;2.33;;
10416;SDS011;62605;49.432;8.680;2023-04-25T01:14:29;2.83;;;2.37;;
10416;SDS011;62605;49.432;8.680;2023-04-25T01:16:56;3.07;;;2.27;;
10416;SDS011;62605;49.432;8.680;2023-04-25T01:19:26;3.17;;;2.33;;
10416;SDS011;62605;49.432;8.680;2023-04-25T01:21:54;3.03;;;2.10;;
10416;SDS011;62605;49.432;8.680;2023-04-25T01:24:21;2.53;;;2.07;;
10416;SDS011;62605;49.432;8.680;2023-04-25T01:26:48;5.30;;;2.30;;
10416;SDS011;62605;49.432;8.680;2023-04-25T01:29:16;3.30;;;2.40;;
10416;SDS011;62605;49.432;8.680;2023-04-25T01:31:43;2.43;;;2.13;;
10416;SDS011;62605;49.432;8.680;2023-04-25T01:34:11;2.83;;;2.17;;
10416;SDS011;62605;49.432;8.680;2023-04-25T01:36:38;3.07;;;2.43;;
10416;SDS011;62605;49.432;8.680;2023-04-25T01:39:07;2.73;;;2.10;;
10416;SDS011;62605;49.432;8.680;2023-04-25T01:41:34;3.13;;;2.63;;
10416;SDS011;62605;49.432;8.680;2023-04-25T01:44:01;3.97;;;2.83;;
10416;SDS011;62605;49.432;8.680;2023-04-25T01:46:28;3.73;;;2.67;;
10416;SDS011;62605;49.432;8.680;2023-04-25T01:48:56;2.50;;;2.30;;
10416;SDS011;62605;49.432;8.680;2023-04-25T01:51:22;4.37;;;2.67;;
10416;SDS011;62605;49.432;8.680;2023-04-25T01:53:50;3.97;;;2.90;;
10416;SDS011;62605;49.432;8.680;2023-04-25T01:56:18;3.93;;;3.30;;
10416;SDS011;62605;49.432;8.680;2023-04-25T01:58:45;4.97;;;3.33;;
10416;SDS011;62605;49.432;8.680;2023-04-25T02:01:12;4.27;;;3.13;;
10416;SDS011;62605;49.432;8.680;2023-04-25T02:03:39;9.20;;;3.60;;
10416;SDS011;62605;49.432;8.680;2023-04-25T02:06:06;4.50;;;3.27;;
10416;SDS011;62605;49.432;8.680;2023-04-25T02:08:33;5.93;;;3.50;;
10416;SDS011;62605;49.432;8.680;2023-04-25T02:11:02;5.37;;;3.00;;
10416;SDS011;62605;49.432;8.680;2023-04-25T02:13:30;5.77;;;3.20;;
10416;SDS011;62605;49.432;8.680;2023-04-25T02:15:57;4.70;;;3.13;;
10416;SDS011;62605;49.432;8.680;2023-04-25T02:18:24;4.60;;;3.13;;
10416;SDS011;62605;49.432;8.680;2023-04-25T02:20:52;4.17;;;2.53;;
10416;SDS011;62605;49.432;8.680;2023-04-25T02:23:19;3.23;;;2.60;;
10416;SDS011;62605;49.432;8.680;2023-04-25T02:25:46;4.30;;;3.07;;
10416;SDS011;62605;49.432;8.680;2023-04-25T02:28:14;4.10;;;2.93;;
10416;SDS011;62605;49.432;8.680;2023-04-25T02:30:43;4.80;;;3.10;;
10416;SDS011;62605;49.432;8.680;2023-04-25T02:33:10;8.13;;;3.00;;
10416;SDS011;62605;49.432;8.680;2023-04-25T02:35:37;3.77;;;2.83;;
10416;SDS011;62605;49.432;8.680;2023-04-25T02:38:04;5.50;;;2.87;;
10416;SDS011;62605;49.432;8.680;2023-04-25T02:40:31;3.67;;;2.73;;
10416;SDS011;62605;49.432;8.680;2023-04-25T02:42:58;4.23;;;2.97;;
10416;SDS011;62605;49.432;8.680;2023-04-25T02:45:25;5.20;;;3.20;;
10416;SDS011;62605;49.432;8.680;2023-04-25T02:47:53;3.93;;;2.77;;
10416;SDS011;62605;49.432;8.680;2023-04-25T02:50:20;4.60;;;3.37;;
10416;SDS011;62605;49.432;8.680;2023-04-25T02:52:47;5.20;;;3.03;;
10416;SDS011;62605;49.432;8.680;2023-04-25T02:55:14;4.73;;;2.90;;
10416;SDS011;62605;49.432;8.680;2023-04-25T02:57:41;5.67;;;3.63;;
10416;SDS011;62605;49.432;8.680;2023-04-25T03:00:09;5.23;;;3.83;;
10416;SDS011;62605;49.432;8.680;2023-04-25T03:02:39;6.47;;;3.17;;
10416;SDS011;62605;49.432;8.680;2023-04-25T03:05:07;4.30;;;3.30;;
10416;SDS011;62605;49.432;8.680;2023-04-25T03:07:35;5.20;;;3.60;;
10416;SDS011;62605;49.432;8.680;2023-04-25T03:10:04;7.30;;;4.13;;
10416;SDS011;62605;49.432;8.680;2023-04-25T03:12:32;7.37;;;3.87;;
10416;SDS011;62605;49.432;8.680;2023-04-25T03:14:59;5.17;;;3.77;;
10416;SDS011;62605;49.432;8.680;2023-04-25T03:17:26;5.20;;;3.70;;
10416;SDS011;62605;49.432;8.680;2023-04-25T03:19:53;6.13;;;4.30;;
10416;SDS011;62605;49.432;8.680;2023-04-25T03:22:21;8.03;;;3.73;;
10416;SDS011;62605;49.432;8.680;2023-04-25T03:24:49;4.73;;;3.37;;
10416;SDS011;62605;49.432;8.680;2023-04-25T03:27:16;4.67;;;3.47;;
10416;SDS011;62605;49.432;8.680;2023-04-25T03:29:43;6.33;;;4.53;;
10416;SDS011;62605;49.432;8.680;2023-04-25T03:32:10;4.53;;;3.33;;
10416;SDS011;62605;49.432;8.680;2023-04-25T03:34:37;5.93;;;3.87;;
10416;SDS011;62605;49.432;8.680;2023-04-25T03:37:04;5.57;;;3.53;;
10416;SDS011;62605;49.432;8.680;2023-04-25T03:39:32;6.67;;;4.80;;
10416;SDS011;62605;49.432;8.680;2023-04-25T03:42:00;7.60;;;4.37;;
10416;SDS011;62605;49.432;8.680;2023-04-25T03:44:27;7.30;;;4.63;;
10416;SDS011;62605;49.432;8.680;2023-04-25T03:46:55;8.60;;;4.27;;
10416;SDS011;62605;49.432;8.680;2023-04-25T03:49:22;5.60;;;4.00;;
10416;SDS011;62605;49.432;8.680;2023-04-25T03:51:49;8.80;;;4.47;;
10416;SDS011;62605;49.432;8.680;2023-04-25T03:54:16;6.63;;;4.00;;
10416;SDS011;62605;49.432;8.680;2023-04-25T03:56:44;5.53;;;3.60;;
10416;SDS011;62605;49.432;8.680;2023-04-25T03:59:11;8.03;;;4.87;;
10416;SDS011;62605;49.432;8.680;2023-04-25T04:01:38;5.80;;;4.03;;
10416;SDS011;62605;49.432;8.680;2023-04-25T04:04:05;7.67;;;4.47;;
10416;SDS011;62605;49.432;8.680;2023-04-25T04:06:32;6.80;;;4.63;;
10416;SDS011;62605;49.432;8.680;2023-04-25T04:09:00;7.87;;;4.70;;
10416;SDS011;62605;49.432;8.680;2023-04-25T04:11:26;6.73;;;4.30;;
10416;SDS011;62605;49.432;8.680;2023-04-25T04:13:55;6.30;;;3.93;;
10416;SDS011;62605;49.432;8.680;2023-04-25T04:16:22;5.77;;;4.23;;
10416;SDS011;62605;49.432;8.680;2023-04-25T04:18:49;7.27;;;4.40;;
10416;SDS011;62605;49.432;8.680;2023-04-25T04:21:16;6.77;;;4.37;;
10416;SDS011;62605;49.432;8.680;2023-04-25T04:23:43;6.77;;;4.00;;
10416;SDS011;62605;49.432;8.680;2023-04-25T04:26:11;6.53;;;4.13;;
10416;SDS011;62605;49.432;8.680;2023-04-25T04:28:40;6.23;;;4.00;;
10416;SDS011;62605;49.432;8.680;2023-04-25T04:31:08;6.80;;;4.57;;
10416;SDS011;62605;49.432;8.680;2023-04-25T04:33:35;5.90;;;4.00;;
10416;SDS011;62605;49.432;8.680;2023-04-25T04:36:03;4.67;;;3.80;;
10416;SDS011;62605;49.432;8.680;2023-04-25T04:38:32;6.90;;;4.57;;
10416;SDS011;62605;49.432;8.680;2023-04-25T04:40:59;7.63;;;3.73;;
10416;SDS011;62605;49.432;8.680;2023-04-25T04:43:27;6.70;;;3.60;;
10416;SDS011;62605;49.432;8.680;2023-04-25T04:45:54;6.23;;;4.00;;
10416;SDS011;62605;49.432;8.680;2023-04-25T04:48:23;5.73;;;3.87;;
10416;SDS011;62605;49.432;8.680;2023-04-25T04:50:50;6.07;;;3.90;;
10416;SDS011;62605;49.432;8.680;2023-04-25T04:53:17;6.13;;;4.13;;
10416;SDS011;62605;49.432;8.680;2023-04-25T04:55:44;5.97;;;4.03;;
10416;SDS011;62605;49.432;8.680;2023-04-25T04:58:11;5.73;;;4.10;;
10416;SDS011;62605;49.432;8.680;2023-04-25T05:00:38;5.50;;;4.00;;
10416;SDS011;62605;49.432;8.680;2023-04-25T05:03:06;5.93;;;4.33;;
10416;SDS011;62605;49.432;8.680;2023-04-25T05:05:34;6.73;;;4.00;;
10416;SDS011;62605;49.432;8.680;2023-04-25T05:08:04;6.50;;;4.50;;
10416;SDS011;62605;49.432;8.680;2023-04-25T05:10:32;7.70;;;4.53;;
10416;SDS011;62605;49.432;8.680;2023-04-25T05:12:59;8.83;;;4.17;;
10416;SDS011;62605;49.432;8.680;2023-04-25T05:15:26;6.17;;;4.00;;
10416;SDS011;62605;49.432;8.680;2023-04-25T05:17:54;7.33;;;4.50;;
10416;SDS011;62605;49.432;8.680;2023-04-25T05:20:21;8.83;;;5.20;;
10416;SDS011;62605;49.432;8.680;2023-04-25T05:22:50;5.67;;;3.90;;
10416;SDS011;62605;49.432;8.680;2023-04-25T05:25:17;6.47;;;4.20;;
10416;SDS011;62605;49.432;8.680;2023-04-25T05:27:44;6.80;;;4.20;;
10416;SDS011;62605;49.432;8.680;2023-04-25T05:30:11;7.83;;;4.47;;
10416;SDS011;62605;49.432;8.680;2023-04-25T05:32:38;5.90;;;4.30;;
10416;SDS011;62605;49.432;8.680;2023-04-25T05:35:06;9.43;;;4.07;;
10416;SDS011;62605;49.432;8.680;2023-04-25T05:37:34;8.80;;;4.23;;
10416;SDS011;62605;49.432;8.680;2023-04-25T05:40:03;8.47;;;4.93;;
10416;SDS011;62605;49.432;8.680;2023-04-25T05:42:32;6.20;;;4.47;;
10416;SDS011;62605;49.432;8.680;2023-04-25T05:44:59;7.30;;;4.47;;
10416;SDS011;62605;49.432;8.680;2023-04-25T05:47:27;6.00;;;4.10;;
10416;SDS011;62605;49.432;8.680;2023-04-25T05:49:54;8.53;;;5.00;;
10416;SDS011;62605;49.432;8.680;2023-04-25T05:52:21;6.40;;;4.63;;
10416;SDS011;62605;49.432;8.680;2023-04-25T05:54:48;5.97;;;4.47;;
10416;SDS011;62605;49.432;8.680;2023-04-25T05:57:20;6.63;;;4.37;;
10416;SDS011;62605;49.432;8.680;2023-04-25T05:59:49;6.47;;;4.10;;
10416;SDS011;62605;49.432;8.680;2023-04-25T06:02:16;7.17;;;4.60;;
10416;SDS011;62605;49.432;8.680;2023-04-25T06:04:43;8.03;;;4.80;;
10416;SDS011;62605;49.432;8.680;2023-04-25T06:07:10;7.10;;;4.80;;
10416;SDS011;62605;49.432;8.680;2023-04-25T06:09:38;7.73;;;5.20;;
10416;SDS011;62605;49.432;8.680;2023-04-25T06:12:05;7.57;;;4.73;;
10416;SDS011;62605;49.432;8.680;2023-04-25T06:14:34;7.27;;;4.87;;
10416;SDS011;62605;49.432;8.680;2023-04-25T06:17:02;8.33;;;5.07;;
10416;SDS011;62605;49.432;8.680;2023-04-25T06:19:31;7.23;;;4.73;;
10416;SDS011;62605;49.432;8.680;2023-04-25T06:21:59;8.40;;;4.73;;
10416;SDS011;62605;49.432;8.680;2023-04-25T06:24:27;8.70;;;4.97;;
10416;SDS011;62605;49.432;8.680;2023-04-25T06:26:54;8.83;;;4.50;;
10416;SDS011;62605;49.432;8.680;2023-04-25T06:29:22;6.00;;;4.50;;
10416;SDS011;62605;49.432;8.680;2023-04-25T06:31:51;9.50;;;4.87;;
10416;SDS011;62605;49.432;8.680;2023-04-25T06:34:18;6.50;;;4.47;;
10416;SDS011;62605;49.432;8.680;2023-04-25T06:36:45;8.43;;;5.33;;
10416;SDS011;62605;49.432;8.680;2023-04-25T06:39:12;9.77;;;4.90;;
10416;SDS011;62605;49.432;8.680;2023-04-25T06:41:39;7.70;;;5.43;;
10416;SDS011;62605;49.432;8.680;2023-04-25T06:44:06;8.60;;;5.10;;
10416;SDS011;62605;49.432;8.680;2023-04-25T06:46:34;7.50;;;4.93;;
10416;SDS011;62605;49.432;8.680;2023-04-25T06:49:04;6.67;;;4.97;;
10416;SDS011;62605;49.432;8.680;2023-04-25T06:51:31;9.57;;;5.00;;
10416;SDS011;62605;49.432;8.680;2023-04-25T06:53:58;7.03;;;5.37;;
10416;SDS011;62605;49.432;8.680;2023-04-25T06:56:25;7.47;;;4.97;;
10416;SDS011;62605;49.432;8.680;2023-04-25T06:58:54;7.93;;;4.97;;
10416;SDS011;62605;49.432;8.680;2023-04-25T07:01:21;6.87;;;5.10;;
10416;SDS011;62605;49.432;8.680;2023-04-25T07:03:49;8.70;;;4.93;;
10416;SDS011;62605;49.432;8.680;2023-04-25T07:06:19;10.20;;;5.00;;
10416;SDS011;62605;49.432;8.680;2023-04-25T07:08:46;7.40;;;4.33;;
10416;SDS011;62605;49.432;8.680;2023-04-25T07:11:13;7.63;;;5.23;;
10416;SDS011;62605;49.432;8.680;2023-04-25T07:13:39;7.63;;;4.87;;
10416;SDS011;62605;49.432;8.680;2023-04-25T07:16:07;7.03;;;4.47;;
10416;SDS011;62605;49.432;8.680;2023-04-25T07:18:35;7.53;;;4.70;;
10416;SDS011;62605;49.432;8.680;2023-04-25T07:21:02;7.30;;;4.17;;
10416;SDS011;62605;49.432;8.680;2023-04-25T07:23:32;6.53;;;4.07;;
10416;SDS011;62605;49.432;8.680;2023-04-25T07:25:59;5.03;;;3.83;;
10416;SDS011;62605;49.432;8.680;2023-04-25T07:28:26;5.83;;;4.60;;
10416;SDS011;62605;49.432;8.680;2023-04-25T07:30:53;9.40;;;5.27;;
10416;SDS011;62605;49.432;8.680;2023-04-25T07:33:20;8.67;;;4.47;;
10416;SDS011;62605;49.432;8.680;2023-04-25T07:35:48;7.63;;;3.90;;
10416;SDS011;62605;49.432;8.680;2023-04-25T07:38:16;8.80;;;4.00;;
10416;SDS011;62605;49.432;8.680;2023-04-25T07:40:45;7.17;;;4.17;;
10416;SDS011;62605;49.432;8.680;2023-04-25T07:43:14;6.07;;;3.83;;
10416;SDS011;62605;49.432;8.680;2023-04-25T07:45:43;5.30;;;3.73;;
10416;SDS011;62605;49.432;8.680;2023-04-25T07:48:11;11.87;;;3.67;;
10416;SDS011;62605;49.432;8.680;2023-04-25T07:50:38;4.67;;;3.17;;
10416;SDS011;62605;49.432;8.680;2023-04-25T07:53:06;4.80;;;3.00;;
10416;SDS011;62605;49.432;8.680;2023-04-25T07:55:33;5.37;;;3.60;;
10416;SDS011;62605;49.432;8.680;2023-04-25T07:58:06;6.80;;;3.33;;
10416;SDS011;62605;49.432;8.680;2023-04-25T08:00:34;7.13;;;3.63;;
10416;SDS011;62605;49.432;8.680;2023-04-25T08:03:02;6.17;;;4.20;;
10416;SDS011;62605;49.432;8.680;2023-04-25T08:05:29;8.10;;;3.50;;
10416;SDS011;62605;49.432;8.680;2023-04-25T08:07:56;9.00;;;3.90;;
10416;SDS011;62605;49.432;8.680;2023-04-25T08:10:24;7.20;;;3.97;;
10416;SDS011;62605;49.432;8.680;2023-04-25T08:12:52;8.77;;;3.77;;
10416;SDS011;62605;49.432;8.680;2023-04-25T08:15:26;8.63;;;3.60;;
10416;SDS011;62605;49.432;8.680;2023-04-25T08:17:54;7.93;;;3.73;;
10416;SDS011;62605;49.432;8.680;2023-04-25T08:20:21;5.77;;;3.63;;
10416;SDS011;62605;49.432;8.680;2023-04-25T08:22:50;9.93;;;3.93;;
10416;SDS011;62605;49.432;8.680;2023-04-25T08:25:17;9.37;;;4.20;;
10416;SDS011;62605;49.432;8.680;2023-04-25T08:27:45;6.20;;;3.80;;
10416;SDS011;62605;49.432;8.680;2023-04-25T08:30:14;7.97;;;4.23;;
10416;SDS011;62605;49.432;8.680;2023-04-25T08:32:43;8.20;;;4.13;;
10416;SDS011;62605;49.432;8.680;2023-04-25T08:35:10;10.07;;;3.90;;
10416;SDS011;62605;49.432;8.680;2023-04-25T08:37:37;8.20;;;4.30;;
10416;SDS011;62605;49.432;8.680;2023-04-25T08:40:05;10.23;;;4.83;;
10416;SDS011;62605;49.432;8.680;2023-04-25T08:42:35;6.97;;;3.60;;
10416;SDS011;62605;49.432;8.680;2023-04-25T08:45:05;7.97;;;3.90;;
10416;SDS011;62605;49.432;8.680;2023-04-25T08:47:33;5.97;;;3.30;;
10416;SDS011;62605;49.432;8.680;2023-04-25T08:50:04;5.23;;;3.37;;
10416;SDS011;62605;49.432;8.680;2023-04-25T08:52:34;4.77;;;2.90;;
10416;SDS011;62605;49.432;8.680;2023-04-25T08:55:04;5.30;;;3.00;;
10416;SDS011;62605;49.432;8.680;2023-04-25T08:57:33;5.40;;;2.53;;
10416;SDS011;62605;49.432;8.680;2023-04-25T09:00:01;4.33;;;2.80;;
10416;SDS011;62605;49.432;8.680;2023-04-25T09:02:30;8.90;;;3.10;;
10416;SDS011;62605;49.432;8.680;2023-04-25T09:04:57;6.20;;;2.77;;
10416;SDS011;62605;49.432;8.680;2023-04-25T09:07:27;7.13;;;3.00;;
10416;SDS011;62605;49.432;8.680;2023-04-25T09:09:54;7.60;;;3.40;;
10416;SDS011;62605;49.432;8.680;2023-04-25T09:12:24;4.97;;;2.37;;
10416;SDS011;62605;49.432;8.680;2023-04-25T09:15:05;4.57;;;2.37;;
10416;SDS011;62605;49.432;8.680;2023-04-25T09:17:33;7.87;;;2.70;;
10416;SDS011;62605;49.432;8.680;2023-04-25T09:20:05;6.20;;;2.70;;
10416;SDS011;62605;49.432;8.680;2023-04-25T09:22:36;6.23;;;3.20;;
10416;SDS011;62605;49.432;8.680;2023-04-25T09:25:07;5.77;;;2.97;;
10416;SDS011;62605;49.432;8.680;2023-04-25T09:27:35;9.00;;;2.57;;
10416;SDS011;62605;49.432;8.680;2023-04-25T09:30:03;6.17;;;2.70;;
10416;SDS011;62605;49.432;8.680;2023-04-25T09:32:32;6.53;;;2.90;;
10416;SDS011;62605;49.432;8.680;2023-04-25T09:35:00;5.27;;;2.37;;
10416;SDS011;62605;49.432;8.680;2023-04-25T09:37:30;7.57;;;2.80;;
10416;SDS011;62605;49.432;8.680;2023-04-25T09:39:59;2.60;;;2.17;;
10416;SDS011;62605;49.432;8.680;2023-04-25T09:42:31;4.90;;;2.27;;
10416;SDS011;62605;49.432;8.680;2023-04-25T09:45:00;4.47;;;2.63;;
10416;SDS011;62605;49.432;8.680;2023-04-25T09:47:29;7.33;;;2.30;;
10416;SDS011;62605;49.432;8.680;2023-04-25T09:49:57;4.07;;;2.63;;
10416;SDS011;62605;49.432;8.680;2023-04-25T09:52:24;2.90;;;2.07;;
10416;SDS011;62605;49.432;8.680;2023-04-25T09:54:52;5.00;;;2.20;;
10416;SDS011;62605;49.432;8.680;2023-04-25T09:57:21;5.83;;;2.57;;
10416;SDS011;62605;49.432;8.680;2023-04-25T09:59:49;4.73;;;2.00;;
10416;SDS011;62605;49.432;8.680;2023-04-25T10:02:18;8.87;;;2.70;;
10416;SDS011;62605;49.432;8.680;2023-04-25T10:04:47;3.60;;;2.67;;
10416;SDS011;62605;49.432;8.680;2023-04-25T10:07:18;3.23;;;2.00;;
10416;SDS011;62605;49.432;8.680;2023-04-25T10:09:47;4.00;;;2.47;;
10416;SDS011;62605;49.432;8.680;2023-04-25T10:12:16;3.73;;;2.50;;
10416;SDS011;62605;49.432;8.680;2023-04-25T10:14:45;4.87;;;2.17;;
10416;SDS011;62605;49.432;8.680;2023-04-25T10:17:12;3.17;;;2.27;;
10416;SDS011;62605;49.432;8.680;2023-04-25T10:19:40;4.47;;;2.47;;
10416;SDS011;62605;49.432;8.680;2023-04-25T10:22:11;3.80;;;2.87;;
10416;SDS011;62605;49.432;8.680;2023-04-25T10:24:44;7.67;;;2.50;;
10416;SDS011;62605;49.432;8.680;2023-04-25T10:27:13;3.80;;;2.67;;
10416;SDS011;62605;49.432;8.680;2023-04-25T10:29:40;5.07;;;2.70;;
10416;SDS011;62605;49.432;8.680;2023-04-25T10:32:10;4.50;;;2.63;;
10416;SDS011;62605;49.432;8.680;2023-04-25T10:34:38;6.03;;;2.27;;
10416;SDS011;62605;49.432;8.680;2023-04-25T10:37:08;5.83;;;3.07;;
10416;SDS011;62605;49.432;8.680;2023-04-25T10:39:37;5.67;;;2.57;;
10416;SDS011;62605;49.432;8.680;2023-04-25T10:42:06;2.40;;;2.20;;
10416;SDS011;62605;49.432;8.680;2023-04-25T10:44:34;5.00;;;2.73;;
10416;SDS011;62605;49.432;8.680;2023-04-25T10:47:02;5.87;;;2.67;;
10416;SDS011;62605;49.432;8.680;2023-04-25T10:49:34;6.47;;;2.87;;
10416;SDS011;62605;49.432;8.680;2023-04-25T10:52:15;8.77;;;3.37;;
10416;SDS011;62605;49.432;8.680;2023-04-25T10:54:46;5.93;;;2.43;;
10416;SDS011;62605;49.432;8.680;2023-04-25T10:57:27;5.77;;;2.83;;
10416;SDS011;62605;49.432;8.680;2023-04-25T11:00:05;6.23;;;2.57;;
10416;SDS011;62605;49.432;8.680;2023-04-25T11:02:42;4.27;;;2.30;;
10416;SDS011;62605;49.432;8.680;2023-04-25T11:05:17;5.30;;;2.57;;
10416;SDS011;62605;49.432;8.680;2023-04-25T11:07:51;4.13;;;3.00;;
10416;SDS011;62605;49.432;8.680;2023-04-25T11:10:25;4.30;;;2.83;;
10416;SDS011;62605;49.432;8.680;2023-04-25T11:12:52;4.93;;;3.00;;
10416;SDS011;62605;49.432;8.680;2023-04-25T11:15:20;7.00;;;2.60;;
10416;SDS011;62605;49.432;8.680;2023-04-25T11:17:47;3.50;;;2.40;;
10416;SDS011;62605;49.432;8.680;2023-04-25T11:20:16;4.30;;;2.70;;
10416;SDS011;62605;49.432;8.680;2023-04-25T11:22:44;2.33;;;2.13;;
10416;SDS011;62605;49.432;8.680;2023-04-25T11:25:13;9.53;;;2.50;;
10416;SDS011;62605;49.432;8.680;2023-04-25T11:27:49;3.37;;;2.17;;
10416;SDS011;62605;49.432;8.680;2023-04-25T11:30:16;4.03;;;2.30;;
10416;SDS011;62605;49.432;8.680;2023-04-25T11:32:44;3.10;;;1.87;;
10416;SDS011;62605;49.432;8.680;2023-04-25T11:35:11;1.70;;;1.53;;
10416;SDS011;62605;49.432;8.680;2023-04-25T11:37:40;3.27;;;1.80;;
10416;SDS011;62605;49.432;8.680;2023-04-25T11:40:08;4.07;;;2.20;;
10416;SDS011;62605;49.432;8.680;2023-04-25T11:42:37;3.03;;;1.63;;
10416;SDS011;62605;49.432;8.680;2023-04-25T11:45:05;8.57;;;2.10;;
10416;SDS011;62605;49.432;8.680;2023-04-25T11:47:34;3.20;;;1.97;;
10416;SDS011;62605;49.432;8.680;2023-04-25T11:50:02;4.07;;;1.87;;
10416;SDS011;62605;49.432;8.680;2023-04-25T11:52:37;3.90;;;1.83;;
10416;SDS011;62605;49.432;8.680;2023-04-25T11:55:08;2.50;;;1.67;;
10416;SDS011;62605;49.432;8.680;2023-04-25T11:57:38;3.80;;;1.80;;
10416;SDS011;62605;49.432;8.680;2023-04-25T12:00:08;1.77;;;1.53;;
10416;SDS011;62605;49.432;8.680;2023-04-25T12:02:37;1.93;;;1.60;;
10416;SDS011;62605;49.432;8.680;2023-04-25T12:05:07;3.77;;;1.73;;
10416;SDS011;62605;49.432;8.680;2023-04-25T12:07:35;1.30;;;1.20;;
10416;SDS011;62605;49.432;8.680;2023-04-25T12:10:08;7.27;;;2.20;;
10416;SDS011;62605;49.432;8.680;2023-04-25T12:12:37;2.63;;;1.80;;
10416;SDS011;62605;49.432;8.680;2023-04-25T12:15:11;4.40;;;2.00;;
10416;SDS011;62605;49.432;8.680;2023-04-25T12:17:41;3.43;;;1.83;;
10416;SDS011;62605;49.432;8.680;2023-04-25T12:20:13;3.53;;;1.70;;
10416;SDS011;62605;49.432;8.680;2023-04-25T12:22:41;3.40;;;1.57;;
10416;SDS011;62605;49.432;8.680;2023-04-25T12:25:13;4.20;;;1.97;;
10416;SDS011;62605;49.432;8.680;2023-04-25T12:28:08;2.60;;;1.80;;
10416;SDS011;62605;49.432;8.680;2023-04-25T12:30:51;2.63;;;1.60;;
10416;SDS011;62605;49.432;8.680;2023-04-25T12:33:20;2.00;;;1.80;;
10416;SDS011;62605;49.432;8.680;2023-04-25T12:35:47;1.93;;;1.77;;
10416;SDS011;62605;49.432;8.680;2023-04-25T12:38:20;2.50;;;1.67;;
10416;SDS011;62605;49.432;8.680;2023-04-25T12:40:49;3.33;;;1.90;;
10416;SDS011;62605;49.432;8.680;2023-04-25T12:43:16;6.80;;;1.90;;
10416;SDS011;62605;49.432;8.680;2023-04-25T12:45:43;3.67;;;1.80;;
10416;SDS011;62605;49.432;8.680;2023-04-25T12:48:10;3.67;;;1.70;;
10416;SDS011;62605;49.432;8.680;2023-04-25T12:50:37;3.63;;;1.83;;
10416;SDS011;62605;49.432;8.680;2023-04-25T12:53:04;1.70;;;1.60;;
10416;SDS011;62605;49.432;8.680;2023-04-25T12:55:31;3.27;;;1.83;;
10416;SDS011;62605;49.432;8.680;2023-04-25T12:57:59;1.83;;;1.57;;
10416;SDS011;62605;49.432;8.680;2023-04-25T13:00:26;5.13;;;2.10;;
10416;SDS011;62605;49.432;8.680;2023-04-25T13:02:54;2.73;;;1.87;;
10416;SDS011;62605;49.432;8.680;2023-04-25T13:05:20;3.17;;;2.00;;
10416;SDS011;62605;49.432;8.680;2023-04-25T13:07:48;3.30;;;2.07;;
10416;SDS011;62605;49.432;8.680;2023-04-25T13:10:16;3.60;;;2.00;;
10416;SDS011;62605;49.432;8.680;2023-04-25T13:12:43;2.73;;;2.30;;
10416;SDS011;62605;49.432;8.680;2023-04-25T13:15:11;2.03;;;1.90;;
10416;SDS011;62605;49.432;8.680;2023-04-25T13:17:40;3.97;;;2.60;;
10416;SDS011;62605;49.432;8.680;2023-04-25T13:20:08;4.20;;;2.07;;
10416;SDS011;62605;49.432;8.680;2023-04-25T13:22:37;4.30;;;2.13;;
10416;SDS011;62605;49.432;8.680;2023-04-25T13:25:05;2.53;;;2.17;;
10416;SDS011;62605;49.432;8.680;2023-04-25T13:27:34;4.63;;;2.50;;
10416;SDS011;62605;49.432;8.680;2023-04-25T13:30:03;2.60;;;2.10;;
10416;SDS011;62605;49.432;8.680;2023-04-25T13:32:34;5.37;;;2.43;;
10416;SDS011;62605;49.432;8.680;2023-04-25T13:35:02;5.37;;;2.40;;
10416;SDS011;62605;49.432;8.680;2023-04-25T13:37:30;4.85;;;2.00;;
10416;SDS011;62605;49.432;8.680;2023-04-25T13:39:58;2.30;;;1.97;;
10416;SDS011;62605;49.432;8.680;2023-04-25T13:42:29;2.70;;;1.92;;
10416;SDS011;62605;49.432;8.680;2023-04-25T13:44:56;4.47;;;1.97;;
10416;SDS011;62605;49.432;8.680;2023-04-25T13:47:23;2.47;;;1.77;;
10416;SDS011;62605;49.432;8.680;2023-04-25T13:49:53;1.90;;;1.73;;
10416;SDS011;62605;49.432;8.680;2023-04-25T13:52:20;3.63;;;2.10;;
10416;SDS011;62605;49.432;8.680;2023-04-25T13:54:49;3.80;;;2.00;;
10416;SDS011;62605;49.432;8.680;2023-04-25T13:57:16;4.07;;;2.50;;
10416;SDS011;62605;49.432;8.680;2023-04-25T13:59:43;6.05;;;2.22;;
10416;SDS011;62605;49.432;8.680;2023-04-25T14:02:11;3.67;;;2.40;;
10416;SDS011;62605;49.432;8.680;2023-04-25T14:04:38;4.03;;;2.30;;
10416;SDS011;62605;49.432;8.680;2023-04-25T14:07:06;3.35;;;2.42;;
10416;SDS011;62605;49.432;8.680;2023-04-25T14:09:33;4.00;;;2.07;;
10416;SDS011;62605;49.432;8.680;2023-04-25T14:12:00;4.60;;;2.40;;
10416;SDS011;62605;49.432;8.680;2023-04-25T14:14:29;4.03;;;2.40;;
10416;SDS011;62605;49.432;8.680;2023-04-25T14:16:56;4.50;;;2.57;;
10416;SDS011;62605;49.432;8.680;2023-04-25T14:19:23;5.47;;;2.17;;
10416;SDS011;62605;49.432;8.680;2023-04-25T14:21:50;4.57;;;2.17;;
10416;SDS011;62605;49.432;8.680;2023-04-25T14:24:18;4.60;;;2.70;;
10416;SDS011;62605;49.432;8.680;2023-04-25T14:26:45;3.13;;;2.10;;
10416;SDS011;62605;49.432;8.680;2023-04-25T14:29:12;3.07;;;2.30;;
10416;SDS011;62605;49.432;8.680;2023-04-25T14:31:40;6.13;;;2.30;;
10416;SDS011;62605;49.432;8.680;2023-04-25T14:34:07;5.53;;;2.70;;
10416;SDS011;62605;49.432;8.680;2023-04-25T14:36:35;2.80;;;2.03;;
10416;SDS011;62605;49.432;8.680;2023-04-25T14:39:02;4.13;;;2.30;;
10416;SDS011;62605;49.432;8.680;2023-04-25T14:41:31;2.73;;;2.47;;
10416;SDS011;62605;49.432;8.680;2023-04-25T14:43:59;4.97;;;2.47;;
10416;SDS011;62605;49.432;8.680;2023-04-25T14:46:26;3.17;;;2.20;;
10416;SDS011;62605;49.432;8.680;2023-04-25T14:48:53;3.20;;;2.30;;
10416;SDS011;62605;49.432;8.680;2023-04-25T14:51:21;3.77;;;2.17;;
10416;SDS011;62605;49.432;8.680;2023-04-25T14:53:48;3.60;;;1.80;;